sensor_id;sensor_type;location;lat;lon;timestamp;temperature;humidity
75010;DHT22;63564;46.840;18.336;2022-12-29T00:01:43;0.58;92.03
75010;DHT22;63564;46.840;18.336;2022-12-29T00:04:44;0.73;90.28
75010;DHT22;63564;46.840;18.336;2022-12-29T00:07:44;0.73;90.28
75010;DHT22;63564;46.840;18.336;2022-12-29T00:10:44;0.65;89.92
75010;DHT22;63564;46.840;18.336;2022-12-29T00:13:45;0.43;90.82
75010;DHT22;63564;46.840;18.336;2022-12-29T00:17:04;0.39;91.85
75010;DHT22;63564;46.840;18.336;2022-12-29T00:20:05;0.42;92.21
75010;DHT22;63564;46.840;18.336;2022-12-29T00:23:24;0.58;92.16
75010;DHT22;63564;46.840;18.336;2022-12-29T00:26:43;0.64;91.57
75010;DHT22;63564;46.840;18.336;2022-12-29T00:30:04;0.63;91.93
75010;DHT22;63564;46.840;18.336;2022-12-29T00:33:29;0.65;91.63
75010;DHT22;63564;46.840;18.336;2022-12-29T00:36:48;0.74;91.47
75010;DHT22;63564;46.840;18.336;2022-12-29T00:39:48;0.71;91.61
75010;DHT22;63564;46.840;18.336;2022-12-29T00:43:07;0.68;91.70
75010;DHT22;63564;46.840;18.336;2022-12-29T00:46:26;0.71;90.56
75010;DHT22;63564;46.840;18.336;2022-12-29T00:49:26;0.71;89.93
75010;DHT22;63564;46.840;18.336;2022-12-29T00:52:30;0.46;91.46
75010;DHT22;63564;46.840;18.336;2022-12-29T00:55:30;0.36;91.63
75010;DHT22;63564;46.840;18.336;2022-12-29T00:58:32;0.22;92.63
75010;DHT22;63564;46.840;18.336;2022-12-29T01:01:33;0.19;93.15
75010;DHT22;63564;46.840;18.336;2022-12-29T01:04:34;0.20;93.14
75010;DHT22;63564;46.840;18.336;2022-12-29T01:07:34;0.35;93.15
75010;DHT22;63564;46.840;18.336;2022-12-29T01:10:35;0.43;93.08
75010;DHT22;63564;46.840;18.336;2022-12-29T01:13:36;0.56;92.40
75010;DHT22;63564;46.840;18.336;2022-12-29T01:16:41;0.61;91.22
75010;DHT22;63564;46.840;18.336;2022-12-29T01:19:42;0.67;90.41
75010;DHT22;63564;46.840;18.336;2022-12-29T01:22:42;0.61;90.48
75010;DHT22;63564;46.840;18.336;2022-12-29T01:25:43;0.35;91.29
75010;DHT22;63564;46.840;18.336;2022-12-29T01:28:44;0.13;91.95
75010;DHT22;63564;46.840;18.336;2022-12-29T01:31:45;-0.09;92.89
75010;DHT22;63564;46.840;18.336;2022-12-29T01:34:45;-0.08;93.25
75010;DHT22;63564;46.840;18.336;2022-12-29T01:37:46;-0.01;93.33
75010;DHT22;63564;46.840;18.336;2022-12-29T01:40:47;0.10;92.67
75010;DHT22;63564;46.840;18.336;2022-12-29T01:43:53;0.10;92.51
75010;DHT22;63564;46.840;18.336;2022-12-29T01:46:54;0.10;92.90
75010;DHT22;63564;46.840;18.336;2022-12-29T01:49:57;0.19;92.57
75010;DHT22;63564;46.840;18.336;2022-12-29T01:53:18;0.33;92.70
75010;DHT22;63564;46.840;18.336;2022-12-29T01:56:20;0.56;91.97
75010;DHT22;63564;46.840;18.336;2022-12-29T01:59:25;0.84;90.83
75010;DHT22;63564;46.840;18.336;2022-12-29T02:02:27;0.99;90.35
75010;DHT22;63564;46.840;18.336;2022-12-29T02:05:33;1.13;90.20
75010;DHT22;63564;46.840;18.336;2022-12-29T02:08:35;1.13;89.64
75010;DHT22;63564;46.840;18.336;2022-12-29T02:11:38;1.33;89.61
75010;DHT22;63564;46.840;18.336;2022-12-29T02:14:39;1.46;89.35
75010;DHT22;63564;46.840;18.336;2022-12-29T02:25:14;1.68;88.58
75010;DHT22;63564;46.840;18.336;2022-12-29T02:28:46;1.66;88.09
75010;DHT22;63564;46.840;18.336;2022-12-29T02:32:05;1.59;88.00
75010;DHT22;63564;46.840;18.336;2022-12-29T02:48:28;1.15;89.23
75010;DHT22;63564;46.840;18.336;2022-12-29T02:51:34;1.02;89.80
75010;DHT22;63564;46.840;18.336;2022-12-29T02:54:37;0.88;89.99
75010;DHT22;63564;46.840;18.336;2022-12-29T02:57:43;0.98;90.44
75010;DHT22;63564;46.840;18.336;2022-12-29T03:11:08;0.95;90.39
75010;DHT22;63564;46.840;18.336;2022-12-29T03:14:34;0.87;89.94
75010;DHT22;63564;46.840;18.336;2022-12-29T03:18:25;0.60;90.38
75010;DHT22;63564;46.840;18.336;2022-12-29T03:21:38;0.49;90.46
75010;DHT22;63564;46.840;18.336;2022-12-29T03:25:03;0.29;90.66
75010;DHT22;63564;46.840;18.336;2022-12-29T03:28:24;0.18;91.28
75010;DHT22;63564;46.840;18.336;2022-12-29T03:31:25;0.03;92.02
75010;DHT22;63564;46.840;18.336;2022-12-29T03:34:26;-0.03;92.55
75010;DHT22;63564;46.840;18.336;2022-12-29T03:37:34;-0.18;92.74
75010;DHT22;63564;46.840;18.336;2022-12-29T03:40:35;-0.18;93.10
75010;DHT22;63564;46.840;18.336;2022-12-29T03:43:37;-0.19;93.28
75010;DHT22;63564;46.840;18.336;2022-12-29T03:46:37;-0.22;93.52
75010;DHT22;63564;46.840;18.336;2022-12-29T03:49:38;-0.22;93.34
75010;DHT22;63564;46.840;18.336;2022-12-29T03:52:38;-0.19;93.44
75010;DHT22;63564;46.840;18.336;2022-12-29T03:55:39;-0.12;93.25
75010;DHT22;63564;46.840;18.336;2022-12-29T03:58:39;-0.12;93.26
75010;DHT22;63564;46.840;18.336;2022-12-29T04:01:40;-0.11;93.42
75010;DHT22;63564;46.840;18.336;2022-12-29T04:04:40;-0.05;93.40
75010;DHT22;63564;46.840;18.336;2022-12-29T04:07:40;-0.16;93.13
75010;DHT22;63564;46.840;18.336;2022-12-29T04:10:41;-0.18;92.87
75010;DHT22;63564;46.840;18.336;2022-12-29T04:13:41;-0.12;93.00
75010;DHT22;63564;46.840;18.336;2022-12-29T04:16:42;-0.01;93.37
75010;DHT22;63564;46.840;18.336;2022-12-29T04:19:42;0.15;91.72
75010;DHT22;63564;46.840;18.336;2022-12-29T04:22:42;0.26;91.95
75010;DHT22;63564;46.840;18.336;2022-12-29T04:25:45;0.39;90.87
75010;DHT22;63564;46.840;18.336;2022-12-29T04:28:46;0.39;91.99
75010;DHT22;63564;46.840;18.336;2022-12-29T04:31:46;0.47;92.25
75010;DHT22;63564;46.840;18.336;2022-12-29T04:34:47;0.43;91.78
75010;DHT22;63564;46.840;18.336;2022-12-29T04:37:47;0.36;92.02
75010;DHT22;63564;46.840;18.336;2022-12-29T04:40:48;0.08;92.36
75010;DHT22;63564;46.840;18.336;2022-12-29T04:43:49;-0.05;92.74
75010;DHT22;63564;46.840;18.336;2022-12-29T04:46:50;-0.22;93.00
75010;DHT22;63564;46.840;18.336;2022-12-29T04:49:50;-0.34;93.23
75010;DHT22;63564;46.840;18.336;2022-12-29T04:52:50;-0.41;93.78
75010;DHT22;63564;46.840;18.336;2022-12-29T04:55:52;-0.47;93.63
75010;DHT22;63564;46.840;18.336;2022-12-29T04:58:52;-0.66;93.11
75010;DHT22;63564;46.840;18.336;2022-12-29T05:01:53;-0.77;94.01
75010;DHT22;63564;46.840;18.336;2022-12-29T05:04:53;-0.73;94.54
75010;DHT22;63564;46.840;18.336;2022-12-29T05:07:53;-0.67;94.43
75010;DHT22;63564;46.840;18.336;2022-12-29T05:10:54;-0.68;94.55
75010;DHT22;63564;46.840;18.336;2022-12-29T05:13:54;-0.56;94.07
75010;DHT22;63564;46.840;18.336;2022-12-29T05:16:55;-0.66;94.10
75010;DHT22;63564;46.840;18.336;2022-12-29T05:19:55;-0.80;94.51
75010;DHT22;63564;46.840;18.336;2022-12-29T05:22:55;-0.74;94.41
75010;DHT22;63564;46.840;18.336;2022-12-29T05:25:56;-0.57;93.25
75010;DHT22;63564;46.840;18.336;2022-12-29T05:28:56;-0.61;92.92
75010;DHT22;63564;46.840;18.336;2022-12-29T05:31:57;-0.76;93.81
75010;DHT22;63564;46.840;18.336;2022-12-29T05:34:57;-0.91;94.61
75010;DHT22;63564;46.840;18.336;2022-12-29T05:37:58;-0.89;94.92
75010;DHT22;63564;46.840;18.336;2022-12-29T05:40:58;-0.98;95.14
75010;DHT22;63564;46.840;18.336;2022-12-29T05:43:58;-1.04;95.87
75010;DHT22;63564;46.840;18.336;2022-12-29T05:46:59;-0.97;96.04
75010;DHT22;63564;46.840;18.336;2022-12-29T05:49:59;-0.95;95.86
75010;DHT22;63564;46.840;18.336;2022-12-29T05:53:00;-1.02;95.64
75010;DHT22;63564;46.840;18.336;2022-12-29T05:56:00;-1.05;95.86
75010;DHT22;63564;46.840;18.336;2022-12-29T05:59:01;-1.02;95.89
75010;DHT22;63564;46.840;18.336;2022-12-29T06:02:02;-0.97;96.07
75010;DHT22;63564;46.840;18.336;2022-12-29T06:05:03;-0.97;96.08
75010;DHT22;63564;46.840;18.336;2022-12-29T06:08:03;-0.94;95.64
75010;DHT22;63564;46.840;18.336;2022-12-29T06:11:04;-0.99;95.87
75010;DHT22;63564;46.840;18.336;2022-12-29T06:14:04;-1.02;95.97
75010;DHT22;63564;46.840;18.336;2022-12-29T06:17:04;-1.04;96.27
75010;DHT22;63564;46.840;18.336;2022-12-29T06:20:05;-1.02;95.87
75010;DHT22;63564;46.840;18.336;2022-12-29T06:23:06;-0.98;96.05
75010;DHT22;63564;46.840;18.336;2022-12-29T06:26:06;-0.95;95.85
75010;DHT22;63564;46.840;18.336;2022-12-29T06:29:08;-0.74;94.47
75010;DHT22;63564;46.840;18.336;2022-12-29T06:32:08;-0.76;94.03
75010;DHT22;63564;46.840;18.336;2022-12-29T06:35:09;-0.63;93.98
75010;DHT22;63564;46.840;18.336;2022-12-29T06:38:09;-0.66;93.94
75010;DHT22;63564;46.840;18.336;2022-12-29T06:41:10;-0.89;94.36
75010;DHT22;63564;46.840;18.336;2022-12-29T06:44:10;-1.02;95.67
75010;DHT22;63564;46.840;18.336;2022-12-29T06:47:11;-0.84;95.67
75010;DHT22;63564;46.840;18.336;2022-12-29T06:50:11;-0.83;95.24
75010;DHT22;63564;46.840;18.336;2022-12-29T06:53:12;-0.87;95.45
75010;DHT22;63564;46.840;18.336;2022-12-29T06:56:12;-0.84;95.81
75010;DHT22;63564;46.840;18.336;2022-12-29T06:59:12;-0.74;95.89
75010;DHT22;63564;46.840;18.336;2022-12-29T07:02:13;-0.64;95.71
75010;DHT22;63564;46.840;18.336;2022-12-29T07:05:18;-0.57;95.50
75010;DHT22;63564;46.840;18.336;2022-12-29T07:08:18;-0.50;95.50
75010;DHT22;63564;46.840;18.336;2022-12-29T07:11:19;-0.28;95.32
75010;DHT22;63564;46.840;18.336;2022-12-29T07:14:19;-0.18;94.78
75010;DHT22;63564;46.840;18.336;2022-12-29T07:17:20;-0.01;94.13
75010;DHT22;63564;46.840;18.336;2022-12-29T07:20:20;0.30;93.48
75010;DHT22;63564;46.840;18.336;2022-12-29T07:23:20;0.49;92.17
75010;DHT22;63564;46.840;18.336;2022-12-29T07:26:21;0.50;91.84
75010;DHT22;63564;46.840;18.336;2022-12-29T07:29:22;0.52;91.77
75010;DHT22;63564;46.840;18.336;2022-12-29T07:32:22;0.68;92.03
75010;DHT22;63564;46.840;18.336;2022-12-29T07:35:22;0.94;91.29
75010;DHT22;63564;46.840;18.336;2022-12-29T07:38:23;1.16;90.79
75010;DHT22;63564;46.840;18.336;2022-12-29T07:41:23;1.30;90.89
75010;DHT22;63564;46.840;18.336;2022-12-29T07:44:24;1.46;90.60
75010;DHT22;63564;46.840;18.336;2022-12-29T07:47:24;1.63;90.44
75010;DHT22;63564;46.840;18.336;2022-12-29T07:50:25;1.82;89.82
75010;DHT22;63564;46.840;18.336;2022-12-29T07:53:25;1.77;90.00
75010;DHT22;63564;46.840;18.336;2022-12-29T07:56:26;1.94;89.61
75010;DHT22;63564;46.840;18.336;2022-12-29T07:59:27;2.12;89.18
75010;DHT22;63564;46.840;18.336;2022-12-29T08:02:27;2.21;89.69
75010;DHT22;63564;46.840;18.336;2022-12-29T08:05:30;2.36;89.10
75010;DHT22;63564;46.840;18.336;2022-12-29T08:08:30;2.35;88.99
75010;DHT22;63564;46.840;18.336;2022-12-29T08:11:31;2.29;89.66
75010;DHT22;63564;46.840;18.336;2022-12-29T08:14:31;2.43;88.96
75010;DHT22;63564;46.840;18.336;2022-12-29T08:17:32;2.60;88.46
75010;DHT22;63564;46.840;18.336;2022-12-29T08:20:32;2.26;89.56
75010;DHT22;63564;46.840;18.336;2022-12-29T08:23:33;2.11;90.56
75010;DHT22;63564;46.840;18.336;2022-12-29T08:26:33;2.15;90.57
75010;DHT22;63564;46.840;18.336;2022-12-29T08:29:33;1.99;90.53
75010;DHT22;63564;46.840;18.336;2022-12-29T08:32:34;1.97;90.63
75010;DHT22;63564;46.840;18.336;2022-12-29T08:35:34;2.02;91.00
75010;DHT22;63564;46.840;18.336;2022-12-29T08:38:35;2.02;90.80
75010;DHT22;63564;46.840;18.336;2022-12-29T08:41:35;2.32;89.47
75010;DHT22;63564;46.840;18.336;2022-12-29T08:44:36;2.47;89.30
75010;DHT22;63564;46.840;18.336;2022-12-29T08:47:36;2.50;89.83
75010;DHT22;63564;46.840;18.336;2022-12-29T08:50:37;2.36;89.62
75010;DHT22;63564;46.840;18.336;2022-12-29T08:53:37;2.28;89.34
75010;DHT22;63564;46.840;18.336;2022-12-29T08:56:38;2.46;89.18
75010;DHT22;63564;46.840;18.336;2022-12-29T08:59:38;2.49;89.01
75010;DHT22;63564;46.840;18.336;2022-12-29T09:02:39;2.60;89.07
75010;DHT22;63564;46.840;18.336;2022-12-29T09:05:39;2.79;88.48
75010;DHT22;63564;46.840;18.336;2022-12-29T09:08:39;2.35;89.23
75010;DHT22;63564;46.840;18.336;2022-12-29T09:11:41;2.47;88.81
75010;DHT22;63564;46.840;18.336;2022-12-29T09:14:41;2.47;88.90
75010;DHT22;63564;46.840;18.336;2022-12-29T09:17:42;2.35;89.16
75010;DHT22;63564;46.840;18.336;2022-12-29T09:20:46;2.26;89.70
75010;DHT22;63564;46.840;18.336;2022-12-29T09:23:47;2.11;91.02
75010;DHT22;63564;46.840;18.336;2022-12-29T09:26:48;2.05;91.14
75010;DHT22;63564;46.840;18.336;2022-12-29T09:29:48;1.91;92.04
75010;DHT22;63564;46.840;18.336;2022-12-29T09:32:49;2.07;91.29
75010;DHT22;63564;46.840;18.336;2022-12-29T09:35:55;2.43;89.49
75010;DHT22;63564;46.840;18.336;2022-12-29T09:38:55;3.62;85.72
75010;DHT22;63564;46.840;18.336;2022-12-29T09:42:11;4.97;80.59
75010;DHT22;63564;46.840;18.336;2022-12-29T09:45:22;5.25;78.56
75010;DHT22;63564;46.840;18.336;2022-12-29T09:48:31;5.35;79.26
75010;DHT22;63564;46.840;18.336;2022-12-29T09:51:37;5.89;77.32
75010;DHT22;63564;46.840;18.336;2022-12-29T09:54:43;6.80;73.52
75010;DHT22;63564;46.840;18.336;2022-12-29T09:57:50;5.97;77.33
75010;DHT22;63564;46.840;18.336;2022-12-29T10:01:06;6.28;75.94
75010;DHT22;63564;46.840;18.336;2022-12-29T10:04:07;6.06;77.13
75010;DHT22;63564;46.840;18.336;2022-12-29T10:07:22;6.29;75.37
75010;DHT22;63564;46.840;18.336;2022-12-29T10:10:39;6.90;74.59
75010;DHT22;63564;46.840;18.336;2022-12-29T10:17:30;6.68;76.24
75010;DHT22;63564;46.840;18.336;2022-12-29T10:23:53;7.28;75.61
75010;DHT22;63564;46.840;18.336;2022-12-29T10:26:55;7.27;76.52
75010;DHT22;63564;46.840;18.336;2022-12-29T10:29:58;7.32;77.55
75010;DHT22;63564;46.840;18.336;2022-12-29T10:33:03;8.06;75.61
75010;DHT22;63564;46.840;18.336;2022-12-29T10:36:13;8.42;74.04
75010;DHT22;63564;46.840;18.336;2022-12-29T10:39:53;8.90;71.83
75010;DHT22;63564;46.840;18.336;2022-12-29T10:42:57;8.44;74.05
75010;DHT22;63564;46.840;18.336;2022-12-29T10:46:01;8.65;74.23
75010;DHT22;63564;46.840;18.336;2022-12-29T10:49:03;9.41;71.08
75010;DHT22;63564;46.840;18.336;2022-12-29T10:52:04;9.41;71.13
75010;DHT22;63564;46.840;18.336;2022-12-29T10:55:12;8.96;73.31
75010;DHT22;63564;46.840;18.336;2022-12-29T10:58:14;8.89;74.24
75010;DHT22;63564;46.840;18.336;2022-12-29T11:01:15;8.97;74.01
75010;DHT22;63564;46.840;18.336;2022-12-29T11:04:25;9.85;70.76
75010;DHT22;63564;46.840;18.336;2022-12-29T11:07:30;9.42;72.03
75010;DHT22;63564;46.840;18.336;2022-12-29T11:10:38;9.78;70.98
75010;DHT22;63564;46.840;18.336;2022-12-29T11:17:02;9.55;72.59
75010;DHT22;63564;46.840;18.336;2022-12-29T11:20:32;9.54;72.85
75010;DHT22;63564;46.840;18.336;2022-12-29T11:23:36;9.21;74.29
75010;DHT22;63564;46.840;18.336;2022-12-29T11:26:37;9.42;73.64
75010;DHT22;63564;46.840;18.336;2022-12-29T11:29:39;10.17;71.58
75010;DHT22;63564;46.840;18.336;2022-12-29T11:32:50;10.40;71.21
75010;DHT22;63564;46.840;18.336;2022-12-29T11:36:02;10.82;69.29
75010;DHT22;63564;46.840;18.336;2022-12-29T11:39:03;11.10;67.98
75010;DHT22;63564;46.840;18.336;2022-12-29T11:42:03;11.20;67.97
75010;DHT22;63564;46.840;18.336;2022-12-29T11:45:16;10.85;69.20
75010;DHT22;63564;46.840;18.336;2022-12-29T11:48:19;10.47;70.68
75010;DHT22;63564;46.840;18.336;2022-12-29T11:54:42;10.44;71.25
75010;DHT22;63564;46.840;18.336;2022-12-29T11:57:43;10.64;70.74
75010;DHT22;63564;46.840;18.336;2022-12-29T12:00:45;10.33;71.90
75010;DHT22;63564;46.840;18.336;2022-12-29T12:04:03;10.24;72.49
75010;DHT22;63564;46.840;18.336;2022-12-29T12:10:16;9.86;73.89
75010;DHT22;63564;46.840;18.336;2022-12-29T12:13:27;9.96;74.00
75010;DHT22;63564;46.840;18.336;2022-12-29T12:16:43;10.12;73.92
75010;DHT22;63564;46.840;18.336;2022-12-29T12:20:09;10.29;73.42
75010;DHT22;63564;46.840;18.336;2022-12-29T12:23:44;10.31;73.54
75010;DHT22;63564;46.840;18.336;2022-12-29T12:30:05;10.06;74.62
75010;DHT22;63564;46.840;18.336;2022-12-29T12:33:37;10.17;74.91
75010;DHT22;63564;46.840;18.336;2022-12-29T12:43:51;10.41;74.42
75010;DHT22;63564;46.840;18.336;2022-12-29T12:56:50;9.35;79.14
75010;DHT22;63564;46.840;18.336;2022-12-29T13:03:23;8.69;80.60
75010;DHT22;63564;46.840;18.336;2022-12-29T13:07:03;8.44;80.71
75010;DHT22;63564;46.840;18.336;2022-12-29T13:10:19;8.69;79.71
75010;DHT22;63564;46.840;18.336;2022-12-29T13:16:34;8.69;80.25
75010;DHT22;63564;46.840;18.336;2022-12-29T13:23:06;9.17;78.54
75010;DHT22;63564;46.840;18.336;2022-12-29T13:26:23;8.90;79.50
75010;DHT22;63564;46.840;18.336;2022-12-29T13:29:35;8.63;80.91
75010;DHT22;63564;46.840;18.336;2022-12-29T13:36:06;9.21;79.51
75010;DHT22;63564;46.840;18.336;2022-12-29T13:42:13;9.35;77.94
75010;DHT22;63564;46.840;18.336;2022-12-29T13:45:17;9.35;77.98
75010;DHT22;63564;46.840;18.336;2022-12-29T13:48:22;8.89;79.83
75010;DHT22;63564;46.840;18.336;2022-12-29T13:51:24;9.04;79.47
75010;DHT22;63564;46.840;18.336;2022-12-29T14:04:24;8.24;80.92
75010;DHT22;63564;46.840;18.336;2022-12-29T14:07:25;8.04;81.43
75010;DHT22;63564;46.840;18.336;2022-12-29T14:10:35;8.23;80.67
75010;DHT22;63564;46.840;18.336;2022-12-29T14:13:40;8.08;80.77
75010;DHT22;63564;46.840;18.336;2022-12-29T14:16:42;7.89;80.96
75010;DHT22;63564;46.840;18.336;2022-12-29T14:19:43;7.73;81.09
75010;DHT22;63564;46.840;18.336;2022-12-29T14:23:01;7.31;82.36
75010;DHT22;63564;46.840;18.336;2022-12-29T14:35:42;6.72;84.00
75010;DHT22;63564;46.840;18.336;2022-12-29T14:38:46;6.48;84.88
75010;DHT22;63564;46.840;18.336;2022-12-29T14:41:47;6.29;85.26
75010;DHT22;63564;46.840;18.336;2022-12-29T14:44:51;6.24;85.42
75010;DHT22;63564;46.840;18.336;2022-12-29T14:47:53;6.04;86.21
75010;DHT22;63564;46.840;18.336;2022-12-29T14:50:53;5.86;86.72
75010;DHT22;63564;46.840;18.336;2022-12-29T14:53:54;5.80;86.52
75010;DHT22;63564;46.840;18.336;2022-12-29T14:56:58;5.46;87.63
75010;DHT22;63564;46.840;18.336;2022-12-29T15:00:35;5.48;87.82
75010;DHT22;63564;46.840;18.336;2022-12-29T15:03:44;5.42;88.22
75010;DHT22;63564;46.840;18.336;2022-12-29T15:06:46;5.32;88.47
75010;DHT22;63564;46.840;18.336;2022-12-29T15:09:54;5.21;88.78
75010;DHT22;63564;46.840;18.336;2022-12-29T15:13:03;5.14;88.91
75010;DHT22;63564;46.840;18.336;2022-12-29T15:16:20;4.94;89.41
75010;DHT22;63564;46.840;18.336;2022-12-29T15:19:22;4.66;90.29
75010;DHT22;63564;46.840;18.336;2022-12-29T15:22:24;4.43;91.09
75010;DHT22;63564;46.840;18.336;2022-12-29T15:25:25;4.43;90.84
75010;DHT22;63564;46.840;18.336;2022-12-29T15:28:27;4.41;90.22
75010;DHT22;63564;46.840;18.336;2022-12-29T15:31:28;4.45;90.76
75010;DHT22;63564;46.840;18.336;2022-12-29T15:34:31;4.42;90.80
75010;DHT22;63564;46.840;18.336;2022-12-29T15:37:34;4.18;91.22
75010;DHT22;63564;46.840;18.336;2022-12-29T15:40:36;4.04;91.33
75010;DHT22;63564;46.840;18.336;2022-12-29T15:47:04;4.01;92.21
75010;DHT22;63564;46.840;18.336;2022-12-29T15:50:09;3.87;91.84
75010;DHT22;63564;46.840;18.336;2022-12-29T15:53:38;3.97;92.06
75010;DHT22;63564;46.840;18.336;2022-12-29T15:56:40;3.90;91.71
75010;DHT22;63564;46.840;18.336;2022-12-29T15:59:45;3.58;93.03
75010;DHT22;63564;46.840;18.336;2022-12-29T16:02:48;3.58;93.48
75010;DHT22;63564;46.840;18.336;2022-12-29T16:05:55;3.62;92.73
75010;DHT22;63564;46.840;18.336;2022-12-29T16:12:00;3.56;92.97
75010;DHT22;63564;46.840;18.336;2022-12-29T16:15:04;3.55;92.81
75010;DHT22;63564;46.840;18.336;2022-12-29T16:18:26;3.49;92.50
75010;DHT22;63564;46.840;18.336;2022-12-29T16:21:30;3.43;92.77
75010;DHT22;63564;46.840;18.336;2022-12-29T16:24:33;3.49;92.84
75010;DHT22;63564;46.840;18.336;2022-12-29T16:27:41;3.36;91.93
75010;DHT22;63564;46.840;18.336;2022-12-29T16:30:42;3.29;92.88
75010;DHT22;63564;46.840;18.336;2022-12-29T16:33:53;3.28;92.45
75010;DHT22;63564;46.840;18.336;2022-12-29T16:36:56;3.18;92.90
75010;DHT22;63564;46.840;18.336;2022-12-29T16:40:26;3.07;92.97
75010;DHT22;63564;46.840;18.336;2022-12-29T16:43:33;3.01;93.25
75010;DHT22;63564;46.840;18.336;2022-12-29T16:46:34;2.98;92.88
75010;DHT22;63564;46.840;18.336;2022-12-29T16:49:36;2.88;92.97
75010;DHT22;63564;46.840;18.336;2022-12-29T16:52:37;2.63;94.07
75010;DHT22;63564;46.840;18.336;2022-12-29T16:55:38;2.43;94.92
75010;DHT22;63564;46.840;18.336;2022-12-29T16:58:47;2.64;94.46
75010;DHT22;63564;46.840;18.336;2022-12-29T17:01:48;2.68;93.83
75010;DHT22;63564;46.840;18.336;2022-12-29T17:04:48;2.72;93.71
75010;DHT22;63564;46.840;18.336;2022-12-29T17:07:51;2.68;93.94
75010;DHT22;63564;46.840;18.336;2022-12-29T17:10:54;2.68;93.52
75010;DHT22;63564;46.840;18.336;2022-12-29T17:14:49;2.77;93.35
75010;DHT22;63564;46.840;18.336;2022-12-29T17:17:54;2.70;93.10
75010;DHT22;63564;46.840;18.336;2022-12-29T17:20:55;2.58;93.49
75010;DHT22;63564;46.840;18.336;2022-12-29T17:23:55;2.60;93.54
75010;DHT22;63564;46.840;18.336;2022-12-29T17:26:58;2.43;93.93
75010;DHT22;63564;46.840;18.336;2022-12-29T17:30:14;2.45;94.27
75010;DHT22;63564;46.840;18.336;2022-12-29T17:33:17;2.37;94.12
75010;DHT22;63564;46.840;18.336;2022-12-29T17:36:18;2.32;94.39
75010;DHT22;63564;46.840;18.336;2022-12-29T17:39:18;2.26;94.05
75010;DHT22;63564;46.840;18.336;2022-12-29T17:42:19;2.01;94.21
75010;DHT22;63564;46.840;18.336;2022-12-29T17:45:22;1.95;94.16
75010;DHT22;63564;46.840;18.336;2022-12-29T17:48:23;1.82;94.67
75010;DHT22;63564;46.840;18.336;2022-12-29T17:51:24;1.77;93.57
75010;DHT22;63564;46.840;18.336;2022-12-29T17:54:25;1.85;94.93
75010;DHT22;63564;46.840;18.336;2022-12-29T17:57:25;1.50;94.09
75010;DHT22;63564;46.840;18.336;2022-12-29T18:00:29;1.49;94.86
75010;DHT22;63564;46.840;18.336;2022-12-29T18:03:32;1.36;94.84
75010;DHT22;63564;46.840;18.336;2022-12-29T18:06:33;1.32;94.63
75010;DHT22;63564;46.840;18.336;2022-12-29T18:09:33;1.38;93.87
75010;DHT22;63564;46.840;18.336;2022-12-29T18:12:38;1.12;94.09
75010;DHT22;63564;46.840;18.336;2022-12-29T18:15:39;1.06;94.47
75010;DHT22;63564;46.840;18.336;2022-12-29T18:18:40;1.15;94.55
75010;DHT22;63564;46.840;18.336;2022-12-29T18:21:41;0.83;95.64
75010;DHT22;63564;46.840;18.336;2022-12-29T18:24:42;0.88;93.80
75010;DHT22;63564;46.840;18.336;2022-12-29T18:27:43;0.75;94.87
75010;DHT22;63564;46.840;18.336;2022-12-29T18:30:44;0.77;95.41
75010;DHT22;63564;46.840;18.336;2022-12-29T18:33:44;0.89;94.74
75010;DHT22;63564;46.840;18.336;2022-12-29T18:36:45;0.80;94.34
75010;DHT22;63564;46.840;18.336;2022-12-29T18:39:45;0.54;94.88
75010;DHT22;63564;46.840;18.336;2022-12-29T18:42:46;0.70;94.86
75010;DHT22;63564;46.840;18.336;2022-12-29T18:45:47;0.50;95.16
75010;DHT22;63564;46.840;18.336;2022-12-29T18:48:47;0.58;95.25
75010;DHT22;63564;46.840;18.336;2022-12-29T18:51:47;0.54;95.28
75010;DHT22;63564;46.840;18.336;2022-12-29T18:54:48;0.56;95.79
75010;DHT22;63564;46.840;18.336;2022-12-29T18:57:49;0.58;95.91
75010;DHT22;63564;46.840;18.336;2022-12-29T19:00:50;0.63;95.95
75010;DHT22;63564;46.840;18.336;2022-12-29T19:03:50;0.63;95.86
75010;DHT22;63564;46.840;18.336;2022-12-29T19:06:51;0.63;95.91
75010;DHT22;63564;46.840;18.336;2022-12-29T19:09:51;0.58;95.41
75010;DHT22;63564;46.840;18.336;2022-12-29T19:12:52;0.57;95.45
75010;DHT22;63564;46.840;18.336;2022-12-29T19:15:53;0.63;95.02
75010;DHT22;63564;46.840;18.336;2022-12-29T19:18:54;0.56;95.77
75010;DHT22;63564;46.840;18.336;2022-12-29T19:21:55;0.46;95.62
75010;DHT22;63564;46.840;18.336;2022-12-29T19:24:57;0.60;95.21
75010;DHT22;63564;46.840;18.336;2022-12-29T19:27:58;0.56;95.37
75010;DHT22;63564;46.840;18.336;2022-12-29T19:31:00;0.54;95.57
75010;DHT22;63564;46.840;18.336;2022-12-29T19:34:01;0.52;95.41
75010;DHT22;63564;46.840;18.336;2022-12-29T19:37:02;0.61;95.02
75010;DHT22;63564;46.840;18.336;2022-12-29T19:40:03;0.60;94.89
75010;DHT22;63564;46.840;18.336;2022-12-29T19:43:04;0.33;94.73
75010;DHT22;63564;46.840;18.336;2022-12-29T19:46:07;0.30;95.16
75010;DHT22;63564;46.840;18.336;2022-12-29T19:49:07;0.36;95.03
75010;DHT22;63564;46.840;18.336;2022-12-29T19:52:08;0.36;95.14
75010;DHT22;63564;46.840;18.336;2022-12-29T19:55:09;0.19;96.36
75010;DHT22;63564;46.840;18.336;2022-12-29T19:58:11;0.15;96.76
75010;DHT22;63564;46.840;18.336;2022-12-29T20:01:15;0.06;96.08
75010;DHT22;63564;46.840;18.336;2022-12-29T20:04:16;0.09;94.79
75010;DHT22;63564;46.840;18.336;2022-12-29T20:07:17;0.12;95.16
75010;DHT22;63564;46.840;18.336;2022-12-29T20:10:18;0.01;96.89
75010;DHT22;63564;46.840;18.336;2022-12-29T20:13:18;-0.02;96.55
75010;DHT22;63564;46.840;18.336;2022-12-29T20:16:19;-0.03;96.55
75010;DHT22;63564;46.840;18.336;2022-12-29T20:19:20;0.13;96.20
75010;DHT22;63564;46.840;18.336;2022-12-29T20:22:20;0.26;96.35
75010;DHT22;63564;46.840;18.336;2022-12-29T20:25:21;-0.01;95.74
75010;DHT22;63564;46.840;18.336;2022-12-29T20:28:22;0.05;96.50
75010;DHT22;63564;46.840;18.336;2022-12-29T20:31:31;0.20;96.01
75010;DHT22;63564;46.840;18.336;2022-12-29T20:34:32;0.22;95.58
75010;DHT22;63564;46.840;18.336;2022-12-29T20:37:32;0.18;96.27
75010;DHT22;63564;46.840;18.336;2022-12-29T20:40:34;-0.09;96.69
75010;DHT22;63564;46.840;18.336;2022-12-29T20:43:35;-0.08;97.42
75010;DHT22;63564;46.840;18.336;2022-12-29T20:46:36;0.05;95.92
75010;DHT22;63564;46.840;18.336;2022-12-29T20:49:36;-0.23;96.12
75010;DHT22;63564;46.840;18.336;2022-12-29T20:52:36;-0.15;96.27
75010;DHT22;63564;46.840;18.336;2022-12-29T20:55:37;-0.12;96.20
75010;DHT22;63564;46.840;18.336;2022-12-29T20:58:38;0.06;95.72
75010;DHT22;63564;46.840;18.336;2022-12-29T21:01:38;0.12;95.55
75010;DHT22;63564;46.840;18.336;2022-12-29T21:04:39;0.15;95.33
75010;DHT22;63564;46.840;18.336;2022-12-29T21:07:39;0.12;95.25
75010;DHT22;63564;46.840;18.336;2022-12-29T21:10:44;0.16;94.99